Time;durP1;ratioP1;P1;durP2;ratioP2;P2;SDS_P1;SDS_P2;PMS_P1;PMS_P2;Temp;Humidity;BMP_temperature;BMP_pressure;BME280_temperature;BME280_humidity;BME280_pressure;Samples;Min_cycle;Max_cycle;Signal;HPM_P1;HPM_P2
2022/08/12 00:44:24;;;;;;;14.63;7.97;;;;;;;20.69;45.35;101786.13;5013633;28;20076;-59
2022/08/12 00:46:58;;;;;;;15.60;7.60;;;;;;;20.63;45.58;101787.56;5013051;28;20026;-59
2022/08/12 00:49:26;;;;;;;15.32;7.63;;;;;;;20.65;45.73;101790.00;5012653;28;20053;-59
2022/08/12 00:52:06;;;;;;;14.80;7.95;;;;;;;20.62;45.89;101790.72;5012955;28;20033;-59
2022/08/12 00:54:36;;;;;;;14.95;8.43;;;;;;;20.61;45.69;101792.72;5012738;28;20052;-59
2022/08/12 00:57:10;;;;;;;14.00;7.80;;;;;;;20.60;46.21;101793.06;5012876;28;20029;-59
2022/08/12 00:59:42;;;;;;;15.73;8.35;;;;;;;20.61;45.85;101794.72;4994895;28;20022;-59
2022/08/12 01:02:12;;;;;;;14.40;7.60;;;;;;;20.49;46.53;101787.91;5012418;28;20044;-59
2022/08/12 01:12:54;;;;;;;15.13;8.43;;;;;;;20.45;47.18;101798.22;5012446;28;20191;-59
2022/08/12 01:15:20;;;;;;;15.32;8.30;;;;;;;20.44;47.25;101792.94;5012235;28;20030;-60
2022/08/12 01:17:45;;;;;;;17.30;8.50;;;;;;;20.39;47.19;101794.00;5012325;28;20022;-60
2022/08/12 01:20:18;;;;;;;16.67;8.60;;;;;;;20.36;47.00;101781.47;5012097;28;20473;-59
2022/08/12 01:23:06;;;;;;;13.85;8.15;;;;;;;20.38;46.87;101793.19;5012201;28;20025;-59
2022/08/12 01:25:36;;;;;;;13.13;8.00;;;;;;;20.34;47.70;101791.44;5012125;28;20034;-58
2022/08/12 01:28:03;;;;;;;14.38;8.43;;;;;;;20.27;47.82;101780.78;5012396;28;20029;-59
2022/08/12 01:30:32;;;;;;;15.10;8.55;;;;;;;20.21;48.02;101799.84;5012023;28;20037;-58
2022/08/12 01:33:01;;;;;;;16.77;8.40;;;;;;;20.09;48.49;101781.00;5011991;28;20450;-59
2022/08/12 01:35:30;;;;;;;15.73;8.02;;;;;;;20.09;48.66;101772.56;5011235;28;20041;-60
2022/08/12 01:37:58;;;;;;;13.93;7.93;;;;;;;20.09;48.84;101786.63;5012092;28;20030;-60
2022/08/12 01:40:29;;;;;;;13.95;8.18;;;;;;;20.06;49.07;101787.31;5011966;28;20034;-60
2022/08/12 01:42:59;;;;;;;15.00;8.10;;;;;;;20.06;48.73;101783.69;5011996;28;20037;-60
2022/08/12 01:45:28;;;;;;;15.85;8.63;;;;;;;19.92;49.19;101784.81;5011920;28;20038;-59
2022/08/12 01:48:22;;;;;;;14.45;8.40;;;;;;;20.03;48.34;101787.19;5011374;28;20073;-61
2022/08/12 01:51:25;;;;;;;14.88;7.93;;;;;;;19.90;48.93;101778.72;5011824;28;20034;-59
2022/08/12 01:54:05;;;;;;;15.48;8.02;;;;;;;19.85;49.20;101781.78;5011894;28;20666;-59
2022/08/12 01:56:41;;;;;;;16.83;8.40;;;;;;;19.81;50.06;101786.41;5011663;28;20113;-59
2022/08/12 02:01:57;;;;;;;14.60;8.13;;;;;;;19.67;50.89;101781.09;5012092;28;20480;-60
2022/08/12 02:11:17;;;;;;;16.33;8.15;;;;;;;19.62;50.40;101781.31;5011791;28;20096;-59
2022/08/12 02:14:10;;;;;;;15.60;8.30;;;;;;;19.53;51.48;101777.78;5011984;28;20096;-59
2022/08/12 02:17:38;;;;;;;16.35;8.85;;;;;;;19.54;50.50;101771.00;5011891;28;20049;-59
2022/08/12 02:20:22;;;;;;;16.75;8.93;;;;;;;19.43;51.55;101782.66;4971578;28;20471;-59
2022/08/12 02:22:50;;;;;;;16.70;8.93;;;;;;;19.38;52.12;101780.06;5011780;28;20113;-60
2022/08/12 02:25:35;;;;;;;16.98;9.20;;;;;;;19.18;52.25;101753.66;5011848;28;20026;-59
2022/08/12 02:28:01;;;;;;;16.55;9.18;;;;;;;19.21;53.06;101775.44;5011697;28;20434;-59
2022/08/12 02:30:30;;;;;;;16.17;9.45;;;;;;;19.13;53.11;101767.88;5011841;28;20060;-59
2022/08/12 02:32:56;;;;;;;18.70;9.35;;;;;;;19.07;53.93;101772.91;5011600;28;20022;-60
2022/08/12 02:35:24;;;;;;;17.45;9.50;;;;;;;19.08;53.07;101779.31;5011619;28;20025;-59
2022/08/12 02:37:53;;;;;;;16.70;9.48;;;;;;;19.03;54.30;101777.53;5011498;28;20106;-59
2022/08/12 02:40:19;;;;;;;17.75;10.13;;;;;;;18.96;54.54;101780.06;5011455;28;20442;-59
2022/08/12 02:42:52;;;;;;;18.23;10.50;;;;;;;18.89;54.49;101774.16;5011257;28;20053;-58
2022/08/12 02:45:24;;;;;;;18.48;10.55;;;;;;;18.88;54.47;101770.53;5011620;28;20564;-59
2022/08/12 02:47:53;;;;;;;17.90;10.35;;;;;;;18.92;54.06;101768.69;5014272;28;20369;-59
2022/08/12 02:50:21;;;;;;;18.08;10.10;;;;;;;18.91;54.51;101766.22;5014933;28;20033;-59
2022/08/12 02:52:50;;;;;;;17.77;9.85;;;;;;;18.90;54.52;101772.97;5015186;28;20033;-59
2022/08/12 02:55:24;;;;;;;17.60;10.02;;;;;;;18.84;54.34;101756.38;5015300;28;20034;-59
2022/08/12 02:57:50;;;;;;;18.50;10.27;;;;;;;18.80;55.92;101768.63;5014792;28;20417;-59
2022/08/12 03:00:17;;;;;;;19.00;10.05;;;;;;;18.75;55.82;101769.63;5015026;28;20057;-60
2022/08/12 03:02:45;;;;;;;18.77;10.38;;;;;;;18.66;56.50;101766.88;4997067;28;20033;-60
2022/08/12 03:05:14;;;;;;;18.77;10.60;;;;;;;18.62;56.46;101765.09;5014945;28;20030;-59
2022/08/12 03:07:46;;;;;;;18.17;10.38;;;;;;;18.54;56.64;101750.00;5015186;28;20061;-59
2022/08/12 03:10:13;;;;;;;19.23;10.75;;;;;;;18.53;56.32;101757.56;5014670;28;20091;-59
2022/08/12 03:12:42;;;;;;;18.58;10.25;;;;;;;18.54;56.78;101750.78;5014964;28;20099;-59
2022/08/12 03:15:10;;;;;;;19.77;10.80;;;;;;;18.47;57.00;101747.72;5015192;28;20033;-59
2022/08/12 03:18:00;;;;;;;19.27;10.55;;;;;;;18.50;56.77;101766.66;5014931;28;20022;-59
2022/08/12 03:20:25;;;;;;;17.45;10.35;;;;;;;18.45;57.43;101766.03;5014962;28;20033;-59
2022/08/12 03:22:51;;;;;;;18.15;10.05;;;;;;;18.43;58.04;101757.13;5014802;28;20030;-59
2022/08/12 03:25:26;;;;;;;18.25;9.80;;;;;;;18.36;58.23;101746.47;5014984;28;20151;-59
2022/08/12 03:27:56;;;;;;;17.45;9.85;;;;;;;18.38;58.38;101763.75;5014897;28;20080;-59
2022/08/12 03:30:27;;;;;;;19.20;10.45;;;;;;;18.29;58.15;101748.97;5014929;28;20037;-58
2022/08/12 03:32:55;;;;;;;20.85;11.23;;;;;;;18.35;57.77;101758.81;5014666;28;20031;-59
2022/08/12 03:35:25;;;;;;;18.10;10.38;;;;;;;18.23;57.75;101742.72;5014468;28;20054;-59
2022/08/12 03:37:53;;;;;;;20.73;10.50;;;;;;;18.16;59.72;101750.84;5014493;28;20037;-59
2022/08/12 04:02:20;;;;;;;18.67;11.25;;;;;;;17.90;61.68;101758.16;5014336;28;19963;-60
2022/08/12 04:04:46;;;;;;;19.73;11.60;;;;;;;17.86;61.63;101745.16;5013815;28;20057;-59
2022/08/12 04:07:12;;;;;;;18.85;11.50;;;;;;;17.84;61.98;101756.69;5013913;28;20038;-59
2022/08/12 04:09:40;;;;;;;18.58;10.88;;;;;;;17.75;62.33;101744.72;5014104;28;20040;-58
2022/08/12 04:14:51;;;;;;;20.15;11.88;;;;;;;17.78;62.78;101760.81;5014108;28;20048;-60
2022/08/12 04:17:18;;;;;;;20.40;11.63;;;;;;;17.76;63.01;101758.34;5013529;28;20037;-60
2022/08/12 04:19:46;;;;;;;20.15;11.63;;;;;;;17.75;62.99;101756.72;5014096;28;20060;-59
2022/08/12 04:22:12;;;;;;;20.00;11.13;;;;;;;17.76;63.15;101763.13;5013694;28;20092;-59
2022/08/12 04:24:38;;;;;;;19.52;11.38;;;;;;;17.78;62.94;101766.41;4995896;28;20033;-59
2022/08/12 04:27:07;;;;;;;19.40;11.63;;;;;;;17.70;63.25;101761.66;5014145;28;20097;-60
2022/08/12 04:29:33;;;;;;;21.45;12.00;;;;;;;17.75;63.06;101758.69;5014068;28;20087;-60
2022/08/12 04:31:58;;;;;;;21.05;12.43;;;;;;;17.77;63.24;101759.16;5013755;28;20026;-58
2022/08/12 04:34:25;;;;;;;18.95;12.30;;;;;;;17.73;63.29;101759.00;5013392;28;20433;-59
2022/08/12 04:36:52;;;;;;;20.08;12.05;;;;;;;17.79;63.19;101759.66;5013723;28;20030;-59
2022/08/12 04:39:19;;;;;;;19.27;12.48;;;;;;;17.79;63.44;101765.25;5013031;28;20445;-60
2022/08/12 04:41:44;;;;;;;22.42;12.65;;;;;;;17.78;63.99;101763.63;5013298;28;20030;-60
2022/08/12 04:44:10;;;;;;;20.65;12.23;;;;;;;17.78;64.02;101760.81;5013306;28;20026;-59
2022/08/12 04:46:36;;;;;;;21.30;12.25;;;;;;;17.75;64.04;101753.91;5013432;28;20072;-59
2022/08/12 04:49:02;;;;;;;21.42;12.10;;;;;;;17.75;64.04;101759.50;5012978;28;20050;-60
2022/08/12 04:51:28;;;;;;;22.80;12.00;;;;;;;17.81;63.85;101762.97;5013557;28;20038;-59
2022/08/12 04:53:53;;;;;;;20.35;12.73;;;;;;;17.79;64.04;101759.66;5013113;28;20084;-59
2022/08/12 04:56:19;;;;;;;21.38;13.00;;;;;;;17.78;64.28;101758.84;5013404;28;20117;-59
2022/08/12 04:58:44;;;;;;;20.70;12.90;;;;;;;17.81;64.07;101754.56;5012874;28;20411;-59
2022/08/12 05:01:10;;;;;;;20.83;12.10;;;;;;;17.87;63.77;101758.00;5013103;28;20034;-59
2022/08/12 05:03:36;;;;;;;21.27;13.07;;;;;;;17.90;63.89;101758.16;5012630;28;20026;-59
2022/08/12 05:06:03;;;;;;;20.80;12.70;;;;;;;17.99;63.33;101763.75;5013411;28;20034;-59
2022/08/12 05:08:29;;;;;;;21.83;12.63;;;;;;;17.99;63.67;101760.97;5013325;28;20060;-60
2022/08/12 05:10:55;;;;;;;21.67;13.15;;;;;;;18.02;63.62;101765.88;5012957;28;20022;-60
2022/08/12 05:13:24;;;;;;;23.23;13.00;;;;;;;18.09;63.47;101762.56;5013115;28;20029;-59
2022/08/12 05:15:50;;;;;;;23.98;14.70;;;;;;;18.11;63.51;101763.06;5013083;28;20021;-60
2022/08/12 05:18:16;;;;;;;21.65;13.98;;;;;;;18.10;63.31;101761.41;5012533;28;20044;-59
2022/08/12 05:20:44;;;;;;;22.83;13.68;;;;;;;18.16;63.48;101765.66;5012487;28;20045;-59
2022/08/12 05:23:12;;;;;;;20.65;12.70;;;;;;;18.22;63.12;101771.91;5012669;28;20048;-59
2022/08/12 05:25:38;;;;;;;20.92;13.90;;;;;;;18.24;63.77;101772.38;5012776;28;20026;-59
2022/08/12 05:28:06;;;;;;;23.02;14.00;;;;;;;18.30;63.55;101771.03;5011523;28;20030;-59
2022/08/12 05:30:35;;;;;;;22.52;13.88;;;;;;;18.32;63.06;101763.13;5013076;28;20026;-59
2022/08/12 05:33:04;;;;;;;22.50;14.50;;;;;;;18.35;63.53;101772.81;5012530;28;20056;-60
2022/08/12 05:35:38;;;;;;;22.60;14.43;;;;;;;18.36;63.65;101763.25;5013081;28;20557;-60
2022/08/12 05:41:00;;;;;;;23.75;15.23;;;;;;;18.45;63.40;101774.44;5012753;28;20080;-60
2022/08/12 05:43:25;;;;;;;21.15;14.50;;;;;;;18.50;63.60;101765.81;5012532;28;20068;-60
2022/08/12 05:45:51;;;;;;;22.95;14.23;;;;;;;18.56;62.96;101778.50;5012189;28;20030;-60
2022/08/12 05:48:16;;;;;;;24.15;14.68;;;;;;;18.62;62.97;101779.94;5012006;28;20152;-60
2022/08/12 05:50:44;;;;;;;27.42;15.85;;;;;;;18.65;63.33;101773.66;5012387;28;20437;-59
2022/08/12 05:53:09;;;;;;;23.67;14.32;;;;;;;18.71;63.04;101777.91;5012115;28;20030;-60
2022/08/12 05:55:35;;;;;;;23.08;14.90;;;;;;;18.81;62.55;101781.47;5012395;28;20420;-60
2022/08/12 05:58:03;;;;;;;23.42;14.98;;;;;;;18.93;62.55;101784.41;5012317;28;20033;-60
2022/08/12 06:00:30;;;;;;;22.67;14.25;;;;;;;19.04;62.18;101790.41;5012582;28;20030;-59
2022/08/12 06:03:00;;;;;;;21.30;14.45;;;;;;;19.09;62.06;101787.38;5012222;28;20022;-59
2022/08/12 06:05:33;;;;;;;23.10;14.20;;;;;;;19.15;61.95;101786.03;5012108;28;20026;-59
2022/08/12 06:07:59;;;;;;;24.83;14.50;;;;;;;19.18;61.69;101790.13;5012376;28;20026;-59
2022/08/12 06:10:25;;;;;;;20.60;13.70;;;;;;;19.24;61.67;101782.34;5012362;28;20378;-59
2022/08/12 06:12:51;;;;;;;22.98;14.57;;;;;;;19.31;61.35;101791.84;5012063;28;20030;-59
2022/08/12 06:15:17;;;;;;;22.00;14.00;;;;;;;19.38;61.04;101793.28;5012109;28;20378;-60
2022/08/12 06:17:43;;;;;;;21.25;13.98;;;;;;;19.39;60.98;101787.31;5012274;28;20029;-60
2022/08/12 06:20:14;;;;;;;23.02;14.27;;;;;;;19.45;60.83;101785.94;5012123;28;20026;-60
2022/08/12 06:22:41;;;;;;;21.88;14.07;;;;;;;19.51;60.67;101792.13;5015091;28;20069;-59
2022/08/12 06:25:07;;;;;;;21.08;14.05;;;;;;;19.60;60.08;101789.25;5015935;28;20095;-59
2022/08/12 06:27:41;;;;;;;22.45;14.40;;;;;;;19.62;60.27;101778.53;5016361;28;20034;-59
2022/08/12 06:30:07;;;;;;;24.70;15.23;;;;;;;19.79;60.19;101795.19;5016184;28;20057;-59
2022/08/12 06:32:32;;;;;;;22.35;14.68;;;;;;;19.85;60.08;101795.81;5016287;28;20033;-59
2022/08/12 06:34:58;;;;;;;24.73;15.35;;;;;;;19.95;59.89;101792.56;5016199;28;20022;-59
2022/08/12 06:37:23;;;;;;;24.02;16.10;;;;;;;20.02;59.72;101789.19;5015645;28;20129;-59
2022/08/12 06:39:48;;;;;;;22.55;15.05;;;;;;;20.08;59.58;101789.75;4997887;28;20557;-59
2022/08/12 06:44:57;;;;;;;22.75;15.95;;;;;;;20.21;59.30;101782.19;5016212;28;20148;-59
2022/08/12 06:47:23;;;;;;;27.42;16.48;;;;;;;20.21;59.50;101780.19;5015929;28;20462;-60
2022/08/12 06:49:49;;;;;;;24.33;15.77;;;;;;;20.35;58.85;101787.47;4998437;28;20062;-60
2022/08/12 06:52:16;;;;;;;22.48;15.25;;;;;;;20.45;58.60;101786.16;5015704;28;20382;-59
2022/08/12 06:54:44;;;;;;;23.13;15.40;;;;;;;20.56;58.41;101784.53;5015705;28;20029;-60
2022/08/12 06:57:10;;;;;;;21.27;15.43;;;;;;;20.68;58.30;101775.25;5015703;28;20033;-59
2022/08/12 06:59:39;;;;;;;22.88;15.55;;;;;;;20.77;57.53;101769.53;5015801;28;20018;-60
2022/08/12 07:02:05;;;;;;;24.10;15.73;;;;;;;20.86;57.00;101773.84;5015880;28;20101;-60
2022/08/12 07:04:34;;;;;;;24.42;15.98;;;;;;;21.03;56.92;101778.38;5015427;28;20038;-60
2022/08/12 07:06:59;;;;;;;23.17;16.23;;;;;;;21.16;56.73;101776.34;5015380;28;20561;-59
2022/08/12 07:09:25;;;;;;;22.73;16.35;;;;;;;21.29;56.66;101777.13;5015551;28;20112;-59
2022/08/12 07:11:50;;;;;;;23.55;15.32;;;;;;;21.33;55.34;101765.97;5015567;28;20026;-59
2022/08/12 07:14:15;;;;;;;23.13;15.35;;;;;;;21.40;56.08;101760.53;5015556;28;20351;-60
2022/08/12 07:16:55;;;;;;;24.52;15.65;;;;;;;21.45;55.11;101773.53;5015431;28;20132;-60
2022/08/12 07:19:20;;;;;;;23.25;15.45;;;;;;;21.56;54.81;101771.84;5015753;28;20065;-60
2022/08/12 07:21:47;;;;;;;23.23;15.23;;;;;;;21.71;54.58;101775.09;5015116;28;20084;-59
2022/08/12 07:24:13;;;;;;;23.15;14.65;;;;;;;21.84;54.64;101789.94;5014821;28;20060;-60
2022/08/12 07:26:40;;;;;;;22.25;15.55;;;;;;;21.97;54.70;101775.41;5015647;28;20034;-59
2022/08/12 07:29:09;;;;;;;23.52;15.95;;;;;;;22.12;54.56;101776.59;5015126;28;20021;-60
2022/08/12 07:31:36;;;;;;;24.35;15.32;;;;;;;22.15;54.12;101780.69;4997034;28;20112;-59
2022/08/12 07:34:02;;;;;;;23.95;15.13;;;;;;;22.26;53.65;101784.59;5013894;28;20105;-59
2022/08/12 07:36:28;;;;;;;24.58;15.70;;;;;;;22.33;53.06;101774.66;5014787;28;20435;-59
2022/08/12 07:38:53;;;;;;;22.92;15.60;;;;;;;22.50;53.97;101790.41;5015006;28;20190;-59
2022/08/12 07:41:21;;;;;;;25.73;17.02;;;;;;;22.53;52.85;101778.41;5014412;28;20032;-59
2022/08/12 07:43:55;;;;;;;25.48;16.42;;;;;;;22.68;51.97;101788.84;5014852;28;20029;-59
2022/08/12 07:46:24;;;;;;;22.85;16.35;;;;;;;22.79;51.84;101797.53;5014528;28;20041;-58
2022/08/12 07:48:53;;;;;;;25.70;15.82;;;;;;;22.91;51.36;101802.22;5014271;28;20431;-60
2022/08/12 07:51:20;;;;;;;24.63;15.02;;;;;;;22.98;50.75;101788.31;5014539;28;20037;-59
2022/08/12 07:53:45;;;;;;;23.30;14.95;;;;;;;23.08;50.09;101797.38;5014959;28;20034;-60
2022/08/12 07:56:11;;;;;;;24.30;15.13;;;;;;;23.19;49.50;101796.44;5014259;28;20091;-60
2022/08/12 07:58:38;;;;;;;22.65;14.48;;;;;;;23.23;49.73;101779.59;5014334;28;20113;-58
2022/08/12 08:01:08;;;;;;;26.60;16.05;;;;;;;23.42;49.33;101789.25;5014107;28;20458;-59
2022/08/12 08:03:33;;;;;;;25.77;15.63;;;;;;;23.53;49.12;101801.56;5014648;28;20040;-59
2022/08/12 08:05:58;;;;;;;23.67;15.77;;;;;;;23.61;48.44;101794.06;5014117;28;20459;-59
2022/08/12 08:08:26;;;;;;;22.25;15.57;;;;;;;23.65;48.44;101778.81;5014595;28;20025;-59
2022/08/12 08:12:52;;;;;;;23.70;15.50;;;;;;;23.75;48.53;101788.69;5014409;28;20073;-60
2022/08/12 08:13:43;;;;;;;23.73;15.65;;;;;;;23.95;47.98;101795.13;5014193;28;20032;-60
2022/08/12 08:16:09;;;;;;;26.50;15.55;;;;;;;24.04;48.01;101789.22;5014073;28;20121;-59
2022/08/12 08:18:35;;;;;;;25.52;15.50;;;;;;;24.14;47.70;101802.75;5014371;28;20025;-60
2022/08/12 08:21:02;;;;;;;23.95;14.90;;;;;;;24.21;47.59;101802.06;5014383;28;20136;-60
2022/08/12 08:26:14;;;;;;;21.77;13.50;;;;;;;24.48;46.85;101802.09;5014263;28;20036;-60
2022/08/12 08:28:40;;;;;;;21.83;13.25;;;;;;;24.62;45.75;101801.50;5014346;28;20108;-59
2022/08/12 08:31:05;;;;;;;21.98;13.35;;;;;;;24.75;45.32;101802.91;5013997;28;20082;-59
2022/08/12 08:33:31;;;;;;;21.08;12.95;;;;;;;24.92;44.20;101812.06;5013942;28;20053;-59
2022/08/12 08:35:57;;;;;;;21.17;12.05;;;;;;;25.01;42.66;101809.78;5013243;28;20121;-60
2022/08/12 08:38:22;;;;;;;23.02;13.15;;;;;;;25.11;43.02;101811.09;5013739;28;20377;-59
2022/08/12 08:43:31;;;;;;;;;;;;;;;25.36;43.52;101804.97;5014340;28;20045;-60
2022/08/12 08:45:57;;;;;;;19.77;12.40;;;;;;;25.48;42.84;101801.09;5013326;28;19910;-60
2022/08/12 08:48:23;;;;;;;22.02;12.10;;;;;;;25.57;41.72;101801.59;5013075;28;20104;-60
2022/08/12 08:50:49;;;;;;;20.50;11.88;;;;;;;25.69;40.91;101795.66;5013371;28;20030;-59
2022/08/12 08:53:15;;;;;;;21.33;11.40;;;;;;;25.85;41.44;101806.75;5013394;28;20018;-60
2022/08/12 08:55:41;;;;;;;20.08;11.88;;;;;;;25.93;40.25;101806.84;5013573;28;20458;-60
2022/08/12 08:58:07;;;;;;;19.92;11.43;;;;;;;26.01;40.52;101806.50;5013455;28;20029;-59
2022/08/12 09:00:36;;;;;;;21.58;11.57;;;;;;;26.03;40.02;101800.44;5013007;28;20034;-60
2022/08/12 09:03:03;;;;;;;21.08;12.32;;;;;;;26.06;40.01;101805.34;5013475;28;20034;-59
2022/08/12 09:05:29;;;;;;;21.65;12.13;;;;;;;26.01;39.61;101797.19;5011705;28;20031;-58
2022/08/12 09:07:58;;;;;;;20.77;11.85;;;;;;;26.13;40.47;101799.75;5013077;28;20034;-60
2022/08/12 09:10:23;;;;;;;20.33;12.68;;;;;;;26.19;40.13;101802.25;5012979;28;20036;-58
2022/08/12 09:15:37;;;;;;;21.63;12.13;;;;;;;26.33;40.04;101793.03;5013419;28;20362;-59
2022/08/12 09:18:05;;;;;;;20.60;11.48;;;;;;;26.54;40.23;101798.06;5012799;28;20439;-59
2022/08/12 09:20:33;;;;;;;21.08;12.50;;;;;;;26.57;39.19;101797.28;5012775;28;20125;-59
2022/08/12 09:23:04;;;;;;;19.58;11.57;;;;;;;26.68;38.60;101798.16;5013127;28;20157;-59
2022/08/12 09:25:30;;;;;;;20.02;11.32;;;;;;;26.85;38.75;101793.81;5013297;28;20080;-59
2022/08/12 09:28:00;;;;;;;18.98;11.02;;;;;;;26.91;37.24;101783.75;5013325;28;20032;-59
2022/08/12 09:30:26;;;;;;;19.08;10.60;;;;;;;27.08;37.32;101792.75;5012563;28;20057;-59
2022/08/12 09:32:52;;;;;;;20.73;10.85;;;;;;;27.15;37.14;101794.81;5012301;28;20034;-59
2022/08/12 09:35:27;;;;;;;17.88;10.32;;;;;;;27.24;36.94;101781.84;5012703;28;20036;-59
2022/08/12 09:37:54;;;;;;;18.20;10.65;;;;;;;27.46;36.96;101790.50;5012248;28;20100;-59
2022/08/12 09:40:22;;;;;;;19.15;10.55;;;;;;;27.53;36.17;101781.97;5011928;28;20434;-59
2022/08/12 09:45:32;;;;;;;22.77;13.23;;;;;;;27.76;34.17;101777.16;5012308;28;20068;-59
2022/08/12 09:48:01;;;;;;;18.17;10.45;;;;;;;27.83;34.81;101768.63;5012288;28;20054;-59
2022/08/12 09:50:26;;;;;;;17.98;9.95;;;;;;;27.93;34.12;101781.25;5012040;28;20033;-59
2022/08/12 09:53:04;;;;;;;19.15;10.13;;;;;;;28.10;34.79;101780.47;5012275;28;20026;-59
2022/08/12 09:55:31;;;;;;;19.80;10.27;;;;;;;28.29;34.16;101775.59;5011565;28;20025;-60
2022/08/12 09:57:57;;;;;;;19.58;9.90;;;;;;;28.34;32.96;101769.47;5012250;28;20041;-60
2022/08/12 10:00:25;;;;;;;19.08;9.70;;;;;;;28.35;32.10;101771.09;4994392;28;20022;-60
2022/08/12 10:02:58;;;;;;;18.70;9.90;;;;;;;28.41;33.74;101771.50;5012203;28;20101;-60
2022/08/12 10:05:23;;;;;;;17.63;9.80;;;;;;;28.55;32.66;101770.66;5012194;28;20061;-59
2022/08/12 10:07:48;;;;;;;19.35;9.93;;;;;;;28.58;31.45;101773.50;5012156;28;20124;-59
2022/08/12 10:10:14;;;;;;;15.65;9.38;;;;;;;28.70;32.09;101765.75;5012040;28;20034;-59
2022/08/12 10:15:23;;;;;;;15.75;9.30;;;;;;;28.83;31.04;101766.16;5012062;28;20319;-60
2022/08/12 10:17:49;;;;;;;18.13;9.65;;;;;;;29.00;31.15;101759.59;5012337;28;20022;-60
2022/08/12 10:20:14;;;;;;;20.65;10.48;;;;;;;29.03;30.74;101752.28;5012074;28;20481;-60
2022/08/12 10:22:40;;;;;;;20.10;9.98;;;;;;;29.07;31.77;101748.19;5011960;28;20030;-60
2022/08/12 10:30:33;;;;;;;15.80;9.32;;;;;;;29.39;30.76;101752.91;5012589;28;20080;-60
2022/08/12 10:32:59;;;;;;;17.80;9.57;;;;;;;29.46;30.67;101749.22;5011795;28;20058;-60
2022/08/12 10:35:30;;;;;;;16.67;9.20;;;;;;;29.40;30.28;101728.09;5012067;28;20029;-60
2022/08/12 10:37:56;;;;;;;17.60;9.32;;;;;;;29.51;30.18;101742.28;5011674;28;20048;-60
2022/08/12 10:40:22;;;;;;;17.13;9.63;;;;;;;29.66;29.41;101738.09;5011822;28;20046;-60
2022/08/12 10:45:31;;;;;;;16.70;9.68;;;;;;;29.63;27.97;101736.09;5011821;28;20556;-60
2022/08/12 10:47:57;;;;;;;18.48;9.70;;;;;;;29.63;28.62;101716.13;5011446;28;20038;-60
2022/08/12 10:50:23;;;;;;;18.60;9.82;;;;;;;29.69;28.79;101723.00;5011792;28;20015;-60
2022/08/12 10:52:48;;;;;;;15.60;9.20;;;;;;;29.74;27.95;101713.19;5011894;28;20022;-60
2022/08/12 10:55:14;;;;;;;16.45;9.18;;;;;;;29.78;28.41;101714.00;5011884;28;20042;-59
2022/08/12 10:57:41;;;;;;;15.68;9.38;;;;;;;29.84;28.85;101711.50;5011717;28;20046;-60
2022/08/12 11:00:07;;;;;;;16.48;9.50;;;;;;;29.84;28.27;101717.22;5011857;28;20326;-60
2022/08/12 11:02:32;;;;;;;17.05;9.80;;;;;;;29.93;28.21;101714.72;5011835;28;20046;-60
2022/08/12 11:04:58;;;;;;;16.90;9.30;;;;;;;29.92;27.62;101706.53;5011671;28;20029;-59
2022/08/12 11:07:25;;;;;;;16.60;9.63;;;;;;;29.92;28.17;101707.34;5012813;28;20273;-59
2022/08/12 11:09:50;;;;;;;18.27;9.80;;;;;;;29.97;27.26;101703.28;5015191;28;20026;-60
2022/08/12 11:12:17;;;;;;;16.45;8.73;;;;;;;30.06;27.21;101689.31;5015210;28;20108;-59
2022/08/12 11:14:43;;;;;;;16.52;8.80;;;;;;;30.25;27.44;101690.75;5015256;28;20026;-59
2022/08/12 11:17:11;;;;;;;18.00;9.65;;;;;;;30.35;27.48;101686.19;5015233;28;20112;-59
2022/08/12 11:19:38;;;;;;;18.80;9.55;;;;;;;30.39;27.03;101674.72;5015306;28;20030;-60
2022/08/12 11:22:05;;;;;;;15.80;8.88;;;;;;;30.56;27.19;101681.50;5015345;28;20025;-60
2022/08/12 11:24:31;;;;;;;18.35;9.70;;;;;;;30.55;27.39;101674.97;4997116;28;20092;-60
2022/08/12 11:26:59;;;;;;;16.45;9.70;;;;;;;30.50;26.85;101689.69;5015303;28;20117;-60
2022/08/12 11:29:26;;;;;;;16.70;9.32;;;;;;;30.29;26.83;101682.97;5015080;28;20033;-60
2022/08/12 11:31:52;;;;;;;16.65;9.20;;;;;;;30.40;26.97;101679.19;5014876;28;20161;-60
2022/08/12 11:34:18;;;;;;;15.80;9.15;;;;;;;30.47;26.95;101676.25;5015046;28;20458;-60
2022/08/12 11:37:06;;;;;;;17.13;9.43;;;;;;;30.60;27.55;101685.94;5014835;28;20022;-60
2022/08/12 11:39:33;;;;;;;18.63;9.65;;;;;;;30.53;26.59;101668.06;5014635;28;20022;-59
2022/08/12 11:41:59;;;;;;;16.77;9.38;;;;;;;30.55;27.01;101674.16;5014894;28;20026;-60
2022/08/12 11:44:24;;;;;;;16.98;9.38;;;;;;;30.61;27.33;101666.75;5015356;28;20030;-60
2022/08/12 11:46:52;;;;;;;17.27;9.70;;;;;;;30.70;26.39;101664.19;5014888;28;20041;-60
2022/08/12 11:49:17;;;;;;;19.05;9.40;;;;;;;30.72;26.23;101653.16;5014906;28;20288;-60
2022/08/12 11:51:43;;;;;;;18.00;9.63;;;;;;;30.83;26.48;101661.56;5014713;28;20121;-60
2022/08/12 11:54:08;;;;;;;19.05;9.88;;;;;;;30.76;25.89;101651.03;5014625;28;20037;-60
2022/08/12 11:56:33;;;;;;;19.45;9.50;;;;;;;30.71;26.79;101651.53;5014619;28;20026;-60
2022/08/12 11:58:59;;;;;;;17.67;9.77;;;;;;;30.89;26.29;101645.56;5014156;28;20022;-60
2022/08/12 12:01:24;;;;;;;18.02;9.90;;;;;;;31.06;26.34;101649.41;5012878;28;20097;-59
2022/08/12 12:03:50;;;;;;;19.58;9.80;;;;;;;31.17;25.67;101640.72;5014660;28;20034;-60
2022/08/12 12:06:16;;;;;;;17.83;9.80;;;;;;;31.10;25.79;101638.78;5014755;28;20042;-60
2022/08/12 12:08:42;;;;;;;15.50;9.52;;;;;;;31.13;25.62;101644.88;5014262;28;20022;-59
2022/08/12 12:11:08;;;;;;;17.23;9.63;;;;;;;31.02;25.63;101637.25;5014414;28;20099;-59
2022/08/12 12:13:33;;;;;;;17.17;9.52;;;;;;;31.07;26.01;101641.66;5014114;28;20417;-60
2022/08/12 12:15:58;;;;;;;17.67;9.50;;;;;;;31.08;25.87;101637.56;5014021;28;20041;-60
2022/08/12 12:18:28;;;;;;;16.23;9.63;;;;;;;31.11;25.31;101631.00;5014029;28;20746;-59
2022/08/12 12:20:57;;;;;;;16.40;9.50;;;;;;;31.25;24.97;101627.94;5013085;28;20022;-59
2022/08/12 12:23:22;;;;;;;16.67;9.43;;;;;;;31.36;25.71;101638.41;5013963;28;20026;-60
2022/08/12 12:25:47;;;;;;;16.77;9.88;;;;;;;31.56;26.08;101644.19;5014143;28;20458;-60
2022/08/12 12:28:13;;;;;;;16.70;9.77;;;;;;;31.39;25.04;101626.09;5013908;28;20033;-61
2022/08/12 12:30:39;;;;;;;17.67;9.98;;;;;;;31.33;25.09;101633.53;5014216;28;20033;-60
2022/08/12 12:33:06;;;;;;;16.15;9.20;;;;;;;31.16;25.11;101626.84;5013397;28;20029;-59
2022/08/12 12:35:32;;;;;;;17.27;9.60;;;;;;;31.30;25.37;101626.66;5014018;28;20481;-59
2022/08/12 12:37:59;;;;;;;17.77;9.50;;;;;;;31.28;25.04;101611.97;5013472;28;20033;-59
2022/08/12 12:40:26;;;;;;;20.33;9.90;;;;;;;31.24;25.64;101599.78;5013406;28;20078;-60
2022/08/12 12:42:52;;;;;;;17.23;9.90;;;;;;;31.17;25.37;101606.44;5013676;28;20458;-61
2022/08/12 12:45:18;;;;;;;18.48;9.85;;;;;;;31.40;26.29;101597.09;5014122;28;20048;-59
2022/08/12 12:47:54;;;;;;;19.05;9.57;;;;;;;31.69;25.48;101612.94;5013026;28;20037;-59
2022/08/12 12:50:19;;;;;;;15.90;9.73;;;;;;;31.82;24.84;101602.50;5013490;28;20033;-59
2022/08/12 12:52:45;;;;;;;17.95;9.90;;;;;;;31.97;24.42;101602.22;5013174;28;20022;-59
2022/08/12 12:55:10;;;;;;;15.95;9.43;;;;;;;32.10;24.55;101596.66;5013172;28;20045;-59
2022/08/12 12:57:39;;;;;;;18.87;9.63;;;;;;;32.20;24.82;101590.75;5013200;28;20077;-59
2022/08/12 13:00:15;;;;;;;16.80;9.73;;;;;;;32.36;24.39;101597.81;5012996;28;20359;-60
2022/08/12 13:02:51;;;;;;;15.15;9.25;;;;;;;32.45;24.14;101595.16;5013598;28;20053;-59
2022/08/12 13:05:26;;;;;;;17.10;9.73;;;;;;;32.36;24.19;101592.06;5013279;28;20127;-59
2022/08/12 13:07:55;;;;;;;17.05;9.82;;;;;;;32.31;24.73;101581.94;5013070;28;20540;-61
2022/08/12 13:10:22;;;;;;;17.58;9.52;;;;;;;32.06;24.04;101585.28;5013058;28;20037;-59